Time,TemperatureF,DewpointF,PressureIn,WindDirection,WindDirectionDegrees,WindSpeedMPH,WindSpeedGustMPH,Humidity,HourlyPrecipIn,Conditions,Clouds,dailyrainin,SoftwareType,DateUTC
2013-11-29 00:08:00,25.3,21.0,30.74,NNW,340,2.0,3.0,84,0.00,,,0.14,weatherlink.com 1.10,2013-11-29 05:08:00,
2013-11-29 00:23:00,25.6,21.0,30.74,NNW,332,0.0,3.0,83,0.00,,,0.14,weatherlink.com 1.10,2013-11-29 05:23:00,
2013-11-29 00:38:00,25.7,21.0,30.74,West,281,0.0,3.0,82,0.00,,,0.14,weatherlink.com 1.10,2013-11-29 05:38:00,
2013-11-29 00:53:00,25.8,21.0,30.74,NNW,331,0.0,4.0,83,0.00,,,0.14,weatherlink.com 1.10,2013-11-29 05:53:00,
2013-11-29 01:08:00,25.6,21.0,30.74,North,360,3.0,4.0,83,0.00,,,0.14,weatherlink.com 1.10,2013-11-29 06:08:00,
2013-11-29 01:23:00,25.6,21.0,30.74,NW,314,1.0,5.0,83,0.00,,,0.14,weatherlink.com 1.10,2013-11-29 06:23:00,
2013-11-29 01:38:00,25.3,21.0,30.74,North,5,1.0,3.0,84,0.00,,,0.14,weatherlink.com 1.10,2013-11-29 06:38:00,
2013-11-29 01:53:00,25.2,21.0,30.74,WSW,250,0.0,4.0,83,0.00,,,0.14,weatherlink.com 1.10,2013-11-29 06:53:00,
2013-11-29 02:08:00,24.7,21.0,30.75,NW,310,0.0,3.0,84,0.00,,,0.14,weatherlink.com 1.10,2013-11-29 07:08:00,
2013-11-29 02:23:00,24.3,20.0,30.75,NW,324,1.0,2.0,85,0.00,,,0.14,weatherlink.com 1.10,2013-11-29 07:23:00,
2013-11-29 02:38:00,23.5,20.0,30.75,WNW,288,0.0,0.0,86,0.00,,,0.14,weatherlink.com 1.10,2013-11-29 07:38:00,
2013-11-29 02:53:00,22.9,20.0,30.75,WNW,288,0.0,0.0,87,0.00,,,0.14,weatherlink.com 1.10,2013-11-29 07:53:00,
2013-11-29 03:08:00,22.5,19.0,30.75,WNW,294,0.0,0.0,87,0.00,,,0.14,weatherlink.com 1.10,2013-11-29 08:08:00,
2013-11-29 03:23:00,22.3,19.0,30.75,WNW,294,0.0,0.0,88,0.00,,,0.14,weatherlink.com 1.10,2013-11-29 08:23:00,
2013-11-29 03:38:00,21.9,19.0,30.76,WNW,294,0.0,0.0,88,0.00,,,0.14,weatherlink.com 1.10,2013-11-29 08:38:00,
2013-11-29 03:53:00,21.4,18.0,30.76,WNW,294,0.0,0.0,88,0.00,,,0.14,weatherlink.com 1.10,2013-11-29 08:53:00,
2013-11-29 04:08:00,21.2,19.0,30.76,WNW,294,0.0,0.0,89,0.00,,,0.14,weatherlink.com 1.10,2013-11-29 09:08:00,
2013-11-29 04:23:00,20.7,18.0,30.77,WNW,294,0.0,0.0,89,0.00,,,0.14,weatherlink.com 1.10,2013-11-29 09:23:00,
2013-11-29 04:38:00,20.5,18.0,30.77,WNW,294,0.0,0.0,90,0.00,,,0.14,weatherlink.com 1.10,2013-11-29 09:38:00,
2013-11-29 04:53:00,20.9,19.0,30.77,WNW,294,0.0,0.0,92,0.00,,,0.14,weatherlink.com 1.10,2013-11-29 09:53:00,
2013-11-29 05:08:00,20.8,19.0,30.78,WNW,294,0.0,0.0,91,0.00,,,0.14,weatherlink.com 1.10,2013-11-29 10:08:00,
2013-11-29 05:23:00,20.2,18.0,30.78,WNW,294,0.0,0.0,90,0.00,,,0.00,weatherlink.com 1.10,2013-11-29 10:23:00,
2013-11-29 05:38:00,19.6,17.0,30.78,WNW,294,0.0,0.0,91,0.00,,,0.00,weatherlink.com 1.10,2013-11-29 10:38:00,
2013-11-29 05:53:00,19.3,17.0,30.79,WNW,294,0.0,0.0,91,0.00,,,0.00,weatherlink.com 1.10,2013-11-29 10:53:00,
2013-11-29 06:08:00,18.9,17.0,30.80,WNW,294,0.0,0.0,91,0.00,,,0.00,weatherlink.com 1.10,2013-11-29 11:08:00,
2013-11-29 06:23:00,18.6,16.0,30.80,WNW,294,0.0,0.0,91,0.00,,,0.00,weatherlink.com 1.10,2013-11-29 11:23:00,
2013-11-29 06:39:00,17.8,15.0,30.80,WNW,294,0.0,0.0,90,0.00,,,0.00,weatherlink.com 1.10,2013-11-29 11:39:00,
2013-11-29 06:54:00,17.1,15.0,30.81,WNW,294,0.0,0.0,90,0.00,,,0.00,weatherlink.com 1.10,2013-11-29 11:54:00,
2013-11-29 07:09:00,16.6,14.0,30.82,WNW,294,0.0,0.0,90,0.00,,,0.00,weatherlink.com 1.10,2013-11-29 12:09:00,
2013-11-29 07:24:00,16.1,14.0,30.82,WNW,294,0.0,0.0,90,0.00,,,0.00,weatherlink.com 1.10,2013-11-29 12:24:00,
2013-11-29 07:39:00,15.7,13.0,30.83,WNW,294,0.0,0.0,90,0.00,,,0.00,weatherlink.com 1.10,2013-11-29 12:39:00,
2013-11-29 07:54:00,15.7,14.0,30.83,WNW,294,0.0,0.0,91,0.00,,,0.00,weatherlink.com 1.10,2013-11-29 12:54:00,
2013-11-29 08:09:00,15.8,14.0,30.84,WNW,294,0.0,0.0,91,0.00,,,0.00,weatherlink.com 1.10,2013-11-29 13:09:00,
2013-11-29 08:24:00,16.2,14.0,30.85,WNW,294,0.0,0.0,92,0.00,,,0.00,weatherlink.com 1.10,2013-11-29 13:24:00,
2013-11-29 08:39:00,16.9,15.0,30.86,WNW,294,0.0,0.0,92,0.00,,,0.00,weatherlink.com 1.10,2013-11-29 13:39:00,
2013-11-29 08:54:00,18.5,17.0,30.86,WNW,294,0.0,0.0,93,0.00,,,0.00,weatherlink.com 1.10,2013-11-29 13:54:00,
2013-11-29 09:09:00,22.0,21.0,30.87,WNW,294,0.0,1.0,94,0.00,,,0.00,weatherlink.com 1.10,2013-11-29 14:09:00,
2013-11-29 09:24:00,24.3,22.0,30.87,WNW,294,0.0,2.0,90,0.00,,,0.00,weatherlink.com 1.10,2013-11-29 14:24:00,
2013-11-29 09:39:00,25.6,21.0,30.87,WNW,282,0.0,0.0,83,0.00,,,0.00,weatherlink.com 1.10,2013-11-29 14:39:00,
2013-11-29 09:54:00,27.1,23.0,30.87,NW,307,0.0,3.0,83,0.00,,,0.00,weatherlink.com 1.10,2013-11-29 14:54:00,
2013-11-29 10:09:00,27.6,22.0,30.88,WSW,246,0.0,3.0,79,0.00,,,0.00,weatherlink.com 1.10,2013-11-29 15:09:00,
2013-11-29 10:24:00,28.5,23.0,30.88,NW,323,0.0,3.0,79,0.00,,,0.00,weatherlink.com 1.10,2013-11-29 15:24:00,
2013-11-29 10:39:00,29.8,22.0,30.87,WNW,286,0.0,3.0,74,0.00,,,0.00,weatherlink.com 1.10,2013-11-29 15:39:00,
2013-11-29 10:54:00,30.2,22.0,30.86,SW,219,0.0,3.0,71,0.00,,,0.00,weatherlink.com 1.10,2013-11-29 15:54:00,
2013-11-29 11:09:00,30.5,23.0,30.87,South,180,2.0,6.0,73,0.00,,,0.00,weatherlink.com 1.10,2013-11-29 16:09:00,
2013-11-29 11:24:00,31.9,24.0,30.86,NW,325,0.0,2.0,73,0.01,,,0.01,weatherlink.com 1.10,2013-11-29 16:24:00,
2013-11-29 11:39:00,31.7,23.0,30.86,WSW,254,1.0,6.0,71,0.03,,,0.03,weatherlink.com 1.10,2013-11-29 16:39:00,
2013-11-29 11:54:00,32.2,24.0,30.86,North,351,2.0,5.0,73,0.05,,,0.05,weatherlink.com 1.10,2013-11-29 16:54:00,
2013-11-29 12:10:00,32.2,23.0,30.85,West,273,0.0,3.0,70,0.07,,,0.07,weatherlink.com 1.10,2013-11-29 17:10:00,
2013-11-29 12:25:00,32.8,24.0,30.85,WSW,248,2.0,4.0,70,0.07,,,0.08,weatherlink.com 1.10,2013-11-29 17:25:00,
2013-11-29 12:40:00,33.4,25.0,30.85,NW,323,0.0,6.0,72,0.07,,,0.10,weatherlink.com 1.10,2013-11-29 17:40:00,
2013-11-29 12:55:00,33.4,25.0,30.84,West,262,3.0,5.0,70,0.06,,,0.11,weatherlink.com 1.10,2013-11-29 17:55:00,
2013-11-29 13:10:00,33.2,24.0,30.84,West,269,3.0,6.0,70,0.06,,,0.13,weatherlink.com 1.10,2013-11-29 18:10:00,
2013-11-29 13:25:00,34.4,26.0,30.84,NNW,343,0.0,5.0,71,0.06,,,0.14,weatherlink.com 1.10,2013-11-29 18:25:00,
2013-11-29 13:40:00,34.8,26.0,30.83,North,351,0.0,6.0,70,0.05,,,0.15,weatherlink.com 1.10,2013-11-29 18:40:00,
2013-11-29 13:55:00,35.5,27.0,30.82,NNW,346,0.0,3.0,70,0.05,,,0.16,weatherlink.com 1.10,2013-11-29 18:55:00,
2013-11-29 14:10:00,36.0,26.0,30.82,NNW,335,2.0,6.0,68,0.04,,,0.17,weatherlink.com 1.10,2013-11-29 19:10:00,
2013-11-29 14:25:00,35.3,26.0,30.82,North,350,1.0,4.0,68,0.04,,,0.18,weatherlink.com 1.10,2013-11-29 19:25:00,
2013-11-29 14:40:00,36.0,26.0,30.82,NNW,342,0.0,5.0,66,0.04,,,0.19,weatherlink.com 1.10,2013-11-29 19:40:00,
2013-11-29 14:55:00,35.2,26.0,30.82,North,349,0.0,3.0,68,0.04,,,0.20,weatherlink.com 1.10,2013-11-29 19:55:00,
2013-11-29 15:10:00,34.8,24.0,30.82,SW,234,0.0,3.0,65,0.03,,,0.20,weatherlink.com 1.10,2013-11-29 20:10:00,
2013-11-29 15:25:00,33.8,25.0,30.82,North,355,0.0,2.0,69,0.03,,,0.21,weatherlink.com 1.10,2013-11-29 20:25:00,
2013-11-29 15:40:00,33.1,24.0,30.82,North,355,0.0,0.0,70,0.02,,,0.21,weatherlink.com 1.10,2013-11-29 20:40:00,
2013-11-29 15:55:00,30.7,23.0,30.82,ESE,113,0.0,3.0,73,0.01,,,0.21,weatherlink.com 1.10,2013-11-29 20:55:00,
2013-11-29 16:10:00,28.8,23.0,30.82,ESE,116,0.0,0.0,78,0.01,,,0.21,weatherlink.com 1.10,2013-11-29 21:10:00,
2013-11-29 16:25:00,28.3,22.0,30.83,ESE,116,0.0,2.0,78,0.00,,,0.21,weatherlink.com 1.10,2013-11-29 21:25:00,
2013-11-29 16:40:00,27.5,22.0,30.82,ESE,117,0.0,0.0,78,0.00,,,0.21,weatherlink.com 1.10,2013-11-29 21:40:00,
2013-11-29 16:55:00,27.1,22.0,30.83,ESE,117,0.0,0.0,80,0.00,,,0.21,weatherlink.com 1.10,2013-11-29 21:55:00,
2013-11-29 17:10:00,26.7,21.0,30.83,ESE,117,0.0,0.0,79,0.00,,,0.21,weatherlink.com 1.10,2013-11-29 22:10:00,
2013-11-29 17:25:00,25.5,20.0,30.83,ESE,117,0.0,0.0,81,0.00,,,0.21,weatherlink.com 1.10,2013-11-29 22:25:00,
2013-11-29 17:40:00,24.7,20.0,30.84,ESE,117,0.0,0.0,83,0.00,,,0.21,weatherlink.com 1.10,2013-11-29 22:40:00,
2013-11-29 17:55:00,24.2,19.0,30.84,ESE,117,0.0,0.0,82,0.00,,,0.21,weatherlink.com 1.10,2013-11-29 22:55:00,
2013-11-29 18:10:00,23.6,20.0,30.84,ESE,117,0.0,0.0,84,0.00,,,0.21,weatherlink.com 1.10,2013-11-29 23:10:00,
2013-11-29 18:25:00,23.3,19.0,30.84,ESE,117,0.0,0.0,84,0.00,,,0.21,weatherlink.com 1.10,2013-11-29 23:25:00,
2013-11-29 18:40:00,23.1,19.0,30.84,ESE,117,0.0,0.0,84,0.00,,,0.21,weatherlink.com 1.10,2013-11-29 23:40:00,
2013-11-29 18:55:00,22.9,19.0,30.85,ESE,117,0.0,0.0,85,0.00,,,0.21,weatherlink.com 1.10,2013-11-29 23:55:00,
2013-11-29 19:10:00,22.9,19.0,30.85,ESE,117,0.0,0.0,86,0.00,,,0.21,weatherlink.com 1.10,2013-11-30 00:10:00,
2013-11-29 19:25:00,23.6,21.0,30.85,ESE,117,0.0,0.0,88,0.00,,,0.21,weatherlink.com 1.10,2013-11-30 00:25:00,
2013-11-29 19:40:00,24.7,23.0,30.85,ESE,117,0.0,0.0,91,0.00,,,0.21,weatherlink.com 1.10,2013-11-30 00:40:00,
2013-11-29 19:55:00,25.3,23.0,30.85,ESE,117,0.0,0.0,91,0.00,,,0.21,weatherlink.com 1.10,2013-11-30 00:55:00,
2013-11-29 20:10:00,25.1,23.0,30.85,ESE,117,0.0,0.0,90,0.00,,,0.21,weatherlink.com 1.10,2013-11-30 01:10:00,
2013-11-29 20:25:00,25.2,23.0,30.84,ESE,117,0.0,0.0,92,0.00,,,0.21,weatherlink.com 1.10,2013-11-30 01:25:00,
2013-11-29 20:40:00,24.8,23.0,30.85,ESE,117,0.0,0.0,92,0.00,,,0.21,weatherlink.com 1.10,2013-11-30 01:40:00,
2013-11-29 20:55:00,24.7,23.0,30.85,ESE,117,0.0,0.0,92,0.00,,,0.21,weatherlink.com 1.10,2013-11-30 01:55:00,
2013-11-29 21:10:00,24.8,23.0,30.84,ESE,117,0.0,0.0,91,0.00,,,0.21,weatherlink.com 1.10,2013-11-30 02:10:00,
2013-11-29 21:25:00,24.8,22.0,30.84,ESE,117,0.0,0.0,89,0.00,,,0.21,weatherlink.com 1.10,2013-11-30 02:25:00,
2013-11-29 21:40:00,24.7,22.0,30.85,ESE,117,0.0,0.0,89,0.00,,,0.21,weatherlink.com 1.10,2013-11-30 02:40:00,
2013-11-29 21:55:00,24.8,22.0,30.85,ESE,117,0.0,0.0,88,0.00,,,0.21,weatherlink.com 1.10,2013-11-30 02:55:00,
2013-11-29 22:10:00,25.7,24.0,30.85,SSE,155,0.0,1.0,91,0.00,,,0.21,weatherlink.com 1.10,2013-11-30 03:10:00,
2013-11-29 22:25:00,26.7,24.0,30.85,SSE,150,0.0,0.0,89,0.00,,,0.21,weatherlink.com 1.10,2013-11-30 03:25:00,
2013-11-29 22:40:00,28.2,26.0,30.84,SSE,149,1.0,7.0,90,0.00,,,0.21,weatherlink.com 1.10,2013-11-30 03:40:00,
2013-11-29 22:55:00,28.7,26.0,30.84,ESE,122,4.0,7.0,88,0.00,,,0.21,weatherlink.com 1.10,2013-11-30 03:55:00,
2013-11-29 23:10:00,28.8,26.0,30.84,ESE,116,0.0,9.0,88,0.00,,,0.21,weatherlink.com 1.10,2013-11-30 04:10:00,
2013-11-29 23:25:00,28.9,26.0,30.84,ESE,113,4.0,12.0,88,0.00,,,0.21,weatherlink.com 1.10,2013-11-30 04:25:00,
2013-11-29 23:40:00,28.4,25.0,30.84,ESE,115,5.0,10.0,88,0.00,,,0.21,weatherlink.com 1.10,2013-11-30 04:40:00,
2013-11-29 23:55:00,27.6,25.0,30.84,ESE,115,7.0,10.0,88,0.00,,,0.21,weatherlink.com 1.10,2013-11-30 04:55:00,